Baltia — 9HMG9 — position and weather

sailwx.info

Track history (hours):
 
Tides and Currents Weather Stations Pressure Air Temp Water Temp Dewpoint Dewpoint Depression Visibility Wind Speed Wind Dir Waves Ship Positions

Baltia

Last reported at 2016-May-23 16:18 UTC. Time now 2016-May-30 20:21 UTC.
Position S 34°25' E 031°32'.

Length 224 m; draft 12.8 m.

Type: Cargo ship. MMSI: 249174000.

Date/timePositionNaut miles runAvg speedWind from/ knotsBaromVisibWave heightAir tempDewpointWater temp
2016-May-23 16:18S 34°25' E 031°32'8 8.8
2016-May-23 15:26S 34°28' E 031°24'7 8.5
2016-May-23 14:33S 34°31' E 031°16'8 8.1
2016-May-23 13:33S 34°35' E 031°07'24 7.6
2016-May-23 10:23S 34°45' E 030°40'6 7.1
2016-May-23 09:33S 34°47' E 030°33'7 7.4
2016-May-23 08:33S 34°50' E 030°25'7 7.3
2016-May-23 07:33S 34°53' E 030°17'7 7.3
2016-May-23 06:33S 34°56' E 030°09'8 7.2
2016-May-23 05:27S 34°60' E 030°00'  
Track history (hours):
 
Tides and Currents Weather Stations Pressure Air Temp Water Temp Dewpoint Dewpoint Depression Visibility Wind Speed Wind Dir Waves Ship Positions

Baltia

Last reported at 2016-May-23 16:18 UTC. Time now 2016-May-30 20:21 UTC.
Position S 34°25' E 031°32'.

Length 224 m; draft 12.8 m.

Type: Cargo ship. MMSI: 249174000.

Date/timePositionNaut miles runAvg speedWind from/ knotsBaromVisibWave heightAir tempDewpointWater temp
2016-May-23 16:18S 34°25' E 031°32'8 8.8
2016-May-23 15:26S 34°28' E 031°24'7 8.5
2016-May-23 14:33S 34°31' E 031°16'8 8.1
2016-May-23 13:33S 34°35' E 031°07'24 7.6
2016-May-23 10:23S 34°45' E 030°40'6 7.1
2016-May-23 09:33S 34°47' E 030°33'7 7.4
2016-May-23 08:33S 34°50' E 030°25'7 7.3
2016-May-23 07:33S 34°53' E 030°17'7 7.3
2016-May-23 06:33S 34°56' E 030°09'8 7.2
2016-May-23 05:27S 34°60' E 030°00'  

Dump ship's entire track history